createdAt,value
2018-06-03T00:02:02.991Z,7.30
2018-06-03T00:04:30.569Z,11.17
2018-06-03T00:06:58.137Z,9.33
2018-06-03T00:09:25.705Z,8.40
2018-06-03T00:11:53.257Z,7.67
2018-06-03T00:14:21.634Z,8.33
2018-06-03T00:16:49.183Z,10.90
2018-06-03T00:19:16.777Z,11.30
2018-06-03T00:21:44.327Z,9.50
2018-06-03T00:24:11.922Z,10.30
2018-06-03T00:26:40.240Z,9.77
2018-06-03T00:29:07.816Z,8.90
2018-06-03T00:31:35.387Z,7.63
2018-06-03T00:34:02.989Z,10.70
2018-06-03T00:36:44.962Z,9.87
2018-06-03T00:39:13.332Z,9.60
2018-06-03T00:41:40.878Z,10.67
2018-06-03T00:44:08.467Z,8.50
2018-06-03T00:46:36.807Z,10.10
2018-06-03T00:49:04.394Z,11.73
2018-06-03T00:51:32.707Z,10.70
2018-06-03T00:54:00.265Z,8.90
2018-06-03T00:56:39.659Z,9.70
2018-06-03T00:59:07.218Z,10.23
2018-06-03T01:01:34.803Z,11.30
2018-06-03T01:04:02.388Z,10.70
2018-06-03T01:06:30.000Z,10.50
2018-06-03T01:08:57.579Z,13.80
2018-06-03T01:11:25.914Z,15.87
2018-06-03T01:13:53.483Z,10.07
2018-06-03T01:16:21.046Z,12.57
2018-06-03T01:18:48.607Z,11.40
2018-06-03T01:21:16.204Z,12.10
2018-06-03T01:23:43.758Z,14.20
2018-06-03T01:26:12.118Z,14.70
2018-06-03T01:28:39.661Z,10.47
2018-06-03T01:31:07.233Z,11.50
2018-06-03T01:33:34.806Z,13.70
2018-06-03T01:36:03.252Z,11.30
2018-06-03T01:38:30.800Z,11.20
2018-06-03T01:40:58.390Z,10.87
2018-06-03T01:43:25.968Z,12.03
2018-06-03T01:45:54.297Z,10.87
2018-06-03T01:48:21.835Z,11.77
2018-06-03T01:50:49.439Z,13.97
2018-06-03T01:53:18.494Z,12.30
2018-06-03T01:55:46.091Z,10.17
2018-06-03T01:58:13.654Z,12.30
2018-06-03T02:00:41.259Z,11.27
2018-06-03T02:03:08.806Z,10.57
2018-06-03T02:05:37.200Z,10.73
2018-06-03T02:08:04.751Z,10.70
2018-06-03T02:10:33.095Z,13.03
2018-06-03T02:13:00.652Z,10.47
2018-06-03T02:15:28.229Z,11.93
2018-06-03T02:17:56.575Z,12.47
2018-06-03T02:20:24.113Z,12.20
2018-06-03T02:22:51.701Z,11.50
2018-06-03T02:25:19.252Z,13.60
2018-06-03T02:27:46.827Z,14.13
2018-06-03T02:30:14.377Z,12.90
2018-06-03T02:32:41.974Z,9.87
2018-06-03T02:35:10.293Z,11.90
2018-06-03T02:37:37.863Z,11.97
2018-06-03T02:40:05.410Z,9.97
2018-06-03T02:42:32.996Z,11.77
2018-06-03T02:45:01.349Z,14.87
2018-06-03T02:47:28.950Z,10.70
2018-06-03T02:49:56.507Z,11.43
2018-06-03T02:52:24.099Z,10.63
2018-06-03T02:54:51.665Z,12.70
2018-06-03T02:57:19.249Z,13.30
2018-06-03T02:59:46.814Z,13.33
2018-06-03T03:02:14.415Z,10.13
2018-06-03T03:04:41.992Z,11.80
2018-06-03T03:07:10.365Z,12.30
2018-06-03T03:09:38.715Z,10.73
2018-06-03T03:12:06.284Z,11.60
2018-06-03T03:14:33.868Z,12.17
2018-06-03T03:17:02.232Z,13.07
2018-06-03T03:19:30.551Z,12.90
2018-06-03T03:21:58.145Z,10.83
2018-06-03T03:24:25.785Z,12.10
2018-06-03T03:26:53.386Z,10.77
2018-06-03T03:29:20.958Z,13.43
2018-06-03T03:31:48.580Z,12.33
2018-06-03T03:34:16.113Z,12.10
2018-06-03T03:36:43.711Z,11.80
2018-06-03T03:39:11.249Z,11.30
2018-06-03T03:41:38.822Z,13.87
2018-06-03T03:44:06.389Z,10.40
2018-06-03T03:46:33.973Z,9.93
2018-06-03T03:49:01.555Z,9.80
2018-06-03T03:51:29.118Z,16.00
2018-06-03T03:53:56.674Z,11.60
2018-06-03T03:56:24.265Z,12.93
2018-06-03T03:58:51.831Z,12.40
2018-06-03T04:01:19.394Z,10.33
2018-06-03T04:03:46.995Z,12.73
2018-06-03T04:06:15.336Z,10.10
2018-06-03T04:08:42.907Z,12.13
2018-06-03T04:11:10.475Z,13.23
2018-06-03T04:13:38.078Z,13.30
2018-06-03T04:16:05.668Z,10.50
2018-06-03T04:18:33.267Z,12.43
2018-06-03T04:21:00.815Z,10.93
2018-06-03T04:23:28.435Z,10.20
2018-06-03T04:25:55.985Z,12.30
2018-06-03T04:28:23.598Z,15.33
2018-06-03T04:30:51.209Z,12.67
2018-06-03T04:33:18.902Z,14.10
2018-06-03T04:35:46.569Z,17.03
2018-06-03T04:38:14.226Z,10.57
2018-06-03T04:40:41.817Z,14.40
2018-06-03T04:43:09.409Z,13.30
2018-06-03T04:45:36.988Z,16.10
2018-06-03T04:48:04.626Z,16.00
2018-06-03T04:50:32.212Z,14.60
2018-06-03T04:52:59.797Z,12.93
2018-06-03T04:55:27.366Z,15.80
2018-06-03T04:57:54.957Z,13.00
2018-06-03T05:00:23.300Z,14.00
2018-06-03T05:02:51.685Z,12.40
2018-06-03T05:05:19.267Z,12.23
2018-06-03T05:07:47.603Z,14.33
2018-06-03T05:10:15.182Z,12.67
2018-06-03T05:12:42.749Z,14.60
2018-06-03T05:15:10.321Z,14.07
2018-06-03T05:17:38.671Z,12.83
2018-06-03T05:20:06.244Z,15.20
2018-06-03T05:22:33.846Z,13.50
2018-06-03T05:25:01.423Z,14.33
2018-06-03T05:27:28.997Z,12.10
2018-06-03T05:29:56.557Z,12.10
2018-06-03T05:32:24.138Z,12.90
2018-06-03T05:34:51.710Z,14.87
2018-06-03T05:37:19.301Z,13.50
2018-06-03T05:39:46.865Z,13.23
2018-06-03T05:42:14.481Z,12.57
2018-06-03T05:44:42.029Z,16.10
2018-06-03T05:47:09.570Z,11.00
2018-06-03T05:49:37.174Z,14.13
2018-06-03T05:52:05.515Z,11.53
2018-06-03T05:54:33.849Z,11.73
2018-06-03T05:57:02.171Z,12.30
2018-06-03T05:59:30.538Z,12.47
2018-06-03T06:01:58.138Z,12.70
2018-06-03T06:04:27.278Z,12.73
2018-06-03T06:06:54.867Z,13.53
2018-06-03T06:09:22.463Z,12.73
2018-06-03T06:11:50.088Z,13.00
2018-06-03T06:14:17.711Z,11.80
2018-06-03T06:16:45.342Z,13.73
2018-06-03T06:19:13.721Z,14.00
2018-06-03T06:21:41.265Z,12.03
2018-06-03T06:24:08.878Z,11.30
2018-06-03T06:26:36.458Z,13.07
2018-06-03T06:29:04.056Z,11.43
2018-06-03T06:31:31.593Z,9.67
2018-06-03T06:33:59.171Z,12.87
2018-06-03T06:36:26.811Z,11.37
2018-06-03T06:38:54.379Z,10.30
2018-06-03T06:41:22.035Z,11.40
2018-06-03T06:43:49.625Z,12.43
2018-06-03T06:46:17.198Z,15.83
2018-06-03T06:48:45.561Z,16.30
2018-06-03T06:51:13.151Z,13.53
2018-06-03T06:53:40.741Z,11.70
2018-06-03T07:42:00.340Z,12.93
2018-06-03T07:44:27.931Z,11.37
2018-06-03T07:46:55.482Z,12.40
2018-06-03T07:49:23.060Z,13.73
2018-06-03T07:51:51.391Z,11.43
2018-06-03T07:54:18.964Z,12.90
2018-06-03T07:56:46.511Z,11.40
2018-06-03T07:59:14.102Z,12.43
2018-06-03T08:01:41.669Z,10.23
2018-06-03T08:04:09.234Z,10.47
2018-06-03T08:06:37.570Z,9.80
2018-06-03T08:09:05.148Z,10.90
2018-06-03T08:11:32.694Z,11.03
2018-06-03T08:14:00.282Z,9.50
2018-06-03T08:16:27.835Z,11.37
2018-06-03T08:18:55.407Z,9.57
2018-06-03T08:21:22.990Z,10.90
2018-06-03T08:23:50.556Z,10.50
2018-06-03T08:26:18.119Z,8.17
2018-06-03T08:28:45.695Z,7.73
2018-06-03T08:31:13.262Z,10.30
2018-06-03T08:33:40.824Z,8.97
2018-06-03T08:36:08.404Z,7.10
2018-06-03T08:38:35.952Z,8.47
2018-06-03T08:41:03.548Z,7.47
2018-06-03T08:43:31.879Z,8.10
2018-06-03T08:45:59.443Z,6.83
2018-06-03T08:48:27.007Z,7.17
2018-06-03T08:50:54.593Z,9.53
2018-06-03T08:53:22.139Z,6.90
2018-06-03T08:55:49.703Z,8.33
2018-06-03T08:58:17.274Z,6.80
2018-06-03T09:00:45.709Z,7.87
2018-06-03T09:03:13.282Z,7.47
2018-06-03T09:05:40.854Z,8.10
2018-06-03T09:08:08.432Z,7.30
2018-06-03T09:10:35.999Z,7.17
2018-06-03T09:13:04.325Z,8.90
2018-06-03T09:15:31.888Z,8.43
2018-06-03T09:17:59.439Z,6.70
2018-06-03T09:20:26.997Z,6.53
2018-06-03T09:22:54.551Z,6.60
2018-06-03T09:25:22.115Z,7.00
2018-06-03T09:27:49.671Z,7.27
2018-06-03T09:30:17.255Z,5.77
2018-06-03T09:32:44.801Z,6.77
2018-06-03T09:35:12.368Z,6.20
2018-06-03T09:37:39.947Z,6.43
2018-06-03T09:40:07.532Z,5.80
2018-06-03T09:42:35.847Z,5.57
2018-06-03T09:45:03.415Z,5.93
2018-06-03T09:47:30.945Z,5.90
2018-06-03T09:49:58.519Z,5.43
2018-06-03T09:52:26.067Z,5.50
2018-06-03T09:54:53.636Z,5.67
2018-06-03T09:57:21.194Z,5.13
2018-06-03T09:59:48.777Z,6.10
2018-06-03T10:02:16.405Z,5.30
2018-06-03T10:04:44.068Z,5.37
2018-06-03T10:07:48.656Z,5.90
2018-06-03T10:10:17.620Z,5.17
2018-06-03T10:12:46.216Z,4.70
2018-06-03T10:15:14.843Z,5.60
2018-06-03T10:17:43.466Z,5.00
2018-06-03T10:20:12.134Z,5.80
2018-06-03T10:22:40.750Z,5.17
2018-06-03T10:25:09.411Z,5.23
2018-06-03T10:27:38.052Z,5.00
2018-06-03T10:30:06.706Z,5.50
2018-06-03T10:32:35.227Z,4.90
2018-06-03T10:35:03.894Z,4.83
2018-06-03T10:37:32.499Z,4.77
2018-06-03T10:40:01.190Z,5.40
2018-06-03T10:42:29.732Z,3.87
2018-06-03T10:44:58.364Z,4.80
2018-06-03T10:47:26.622Z,5.50
2018-06-03T10:49:55.241Z,5.80
2018-06-03T10:52:23.840Z,4.53
2018-06-03T10:54:52.383Z,5.03
2018-06-03T10:57:20.904Z,4.80
2018-06-03T10:59:49.580Z,4.90
2018-06-03T11:02:18.216Z,4.73
2018-06-03T11:04:46.844Z,5.87
2018-06-03T11:07:15.411Z,4.30
2018-06-03T11:09:44.001Z,4.07
2018-06-03T11:12:12.583Z,5.40
2018-06-03T11:14:41.187Z,4.50
2018-06-03T11:17:09.842Z,3.97
2018-06-03T11:19:38.102Z,4.47
2018-06-03T11:22:06.664Z,3.67
2018-06-03T11:24:35.216Z,4.87
2018-06-03T11:27:03.826Z,4.90
2018-06-03T11:29:32.450Z,4.50
2018-06-03T11:32:01.019Z,3.70
2018-06-03T11:34:29.640Z,4.20
2018-06-03T11:36:58.213Z,5.50
2018-06-03T11:39:26.801Z,4.40
2018-06-03T11:41:55.452Z,4.53
2018-06-03T11:44:24.016Z,4.30
2018-06-03T11:46:52.665Z,3.60
2018-06-03T11:49:21.227Z,4.30
2018-06-03T11:51:49.835Z,4.33
2018-06-03T11:54:18.464Z,6.10
2018-06-03T11:56:58.254Z,3.73
2018-06-03T11:59:47.166Z,4.27
2018-06-03T12:02:17.205Z,5.30
2018-06-03T12:04:45.775Z,3.80
2018-06-03T12:07:14.337Z,3.60
2018-06-03T12:09:42.895Z,4.67
2018-06-03T12:12:11.504Z,5.20
2018-06-03T12:14:40.018Z,3.80
2018-06-03T12:17:08.639Z,4.30
2018-06-03T12:19:37.187Z,4.63
2018-06-03T12:22:05.901Z,3.97
2018-06-03T12:24:34.503Z,4.10
2018-06-03T12:27:03.083Z,3.87
2018-06-03T12:29:31.668Z,3.90
2018-06-03T12:32:00.259Z,4.20
2018-06-03T12:34:28.868Z,3.47
2018-06-03T12:36:57.467Z,3.53
2018-06-03T12:39:26.064Z,3.67
2018-06-03T12:41:54.444Z,4.80
2018-06-03T12:44:23.016Z,3.97
2018-06-03T12:46:51.619Z,4.53
2018-06-03T12:49:19.854Z,3.90
2018-06-03T12:51:48.505Z,3.70
2018-06-03T12:54:19.905Z,4.03
2018-06-03T12:56:48.575Z,3.90
2018-06-03T12:59:17.086Z,3.53
2018-06-03T13:01:45.709Z,3.60
2018-06-03T13:04:14.277Z,3.93
2018-06-03T13:06:42.894Z,4.80
2018-06-03T13:09:11.763Z,4.30
2018-06-03T13:11:40.409Z,4.57
2018-06-03T13:14:09.004Z,3.23
2018-06-03T13:16:37.367Z,3.70
2018-06-03T13:19:05.928Z,5.07
2018-06-03T13:21:34.603Z,4.50
2018-06-03T13:24:03.226Z,3.53
2018-06-03T13:26:31.936Z,3.73
2018-06-03T13:29:00.493Z,4.30
2018-06-03T13:31:29.054Z,4.10
2018-06-03T13:33:57.707Z,3.30
2018-06-03T13:36:26.420Z,5.27
2018-06-03T13:38:55.065Z,3.77
2018-06-03T13:41:23.801Z,5.50
2018-06-03T13:43:52.457Z,4.00
2018-06-03T13:46:21.442Z,3.83
2018-06-03T13:48:52.087Z,4.30
2018-06-03T13:51:20.745Z,3.93
2018-06-03T13:53:49.292Z,3.23
2018-06-03T13:56:17.971Z,4.80
2018-06-03T13:58:46.585Z,4.20
2018-06-03T14:01:14.769Z,3.63
2018-06-03T14:03:43.354Z,4.90
2018-06-03T14:06:11.982Z,4.00
2018-06-03T14:08:40.643Z,3.57
2018-06-03T14:11:09.211Z,4.60
2018-06-03T14:13:37.863Z,4.20
2018-06-03T14:16:06.441Z,3.23
2018-06-03T14:18:35.135Z,3.83
2018-06-03T14:21:04.230Z,3.87
2018-06-03T14:23:32.783Z,4.10
2018-06-03T14:26:01.388Z,4.93
2018-06-03T14:28:30.038Z,2.83
2018-06-03T14:30:58.759Z,3.40
2018-06-03T14:33:27.508Z,4.40
2018-06-03T14:38:39.558Z,3.77
2018-06-03T14:41:08.226Z,4.30
2018-06-03T14:43:36.850Z,3.97
2018-06-03T14:46:05.435Z,5.20
2018-06-03T14:48:34.140Z,4.07
2018-06-03T14:51:02.702Z,4.10
2018-06-03T14:53:31.381Z,4.30
2018-06-03T14:55:59.951Z,4.70
2018-06-03T14:58:28.634Z,4.30
2018-06-03T15:00:57.269Z,3.60
2018-06-03T15:03:25.924Z,3.60
2018-06-03T15:05:54.587Z,3.20
2018-06-03T15:08:23.280Z,3.60
2018-06-03T15:10:51.943Z,3.67
2018-06-03T15:13:20.578Z,3.23
2018-06-03T15:15:49.168Z,3.93
2018-06-03T15:18:18.045Z,3.50
2018-06-03T15:20:46.665Z,3.43
2018-06-03T15:23:15.318Z,3.50
2018-06-03T15:25:43.934Z,4.17
2018-06-03T15:28:12.639Z,3.87
2018-06-03T15:30:41.304Z,3.23
2018-06-03T15:33:10.021Z,4.10
2018-06-03T15:35:38.671Z,3.83
2018-06-03T15:38:07.280Z,5.00
2018-06-03T15:40:35.926Z,3.43
2018-06-03T15:43:04.563Z,3.70
2018-06-03T15:45:33.250Z,3.20
2018-06-03T15:48:01.855Z,3.27
2018-06-03T15:50:30.444Z,4.07
2018-06-03T15:52:59.139Z,3.43
2018-06-03T15:55:27.789Z,4.00
2018-06-03T15:57:56.366Z,3.30
2018-06-03T16:00:24.983Z,5.40
2018-06-03T16:02:53.677Z,5.43
2018-06-03T16:05:22.237Z,3.13
2018-06-03T16:07:50.999Z,3.83
2018-06-03T16:10:19.704Z,4.37
2018-06-03T16:12:48.326Z,4.23
2018-06-03T16:15:16.897Z,4.40
2018-06-03T16:17:45.524Z,4.30
2018-06-03T16:20:14.175Z,3.47
2018-06-03T16:22:42.695Z,4.10
2018-06-03T16:25:11.357Z,3.80
2018-06-03T16:27:40.058Z,4.10
2018-06-03T16:30:08.685Z,4.03
2018-06-03T16:32:37.398Z,3.60
2018-06-03T16:35:06.154Z,4.17
2018-06-03T16:37:34.756Z,3.80
2018-06-03T16:40:03.476Z,4.30
2018-06-03T16:42:31.650Z,4.40
2018-06-03T16:45:00.242Z,3.47
2018-06-03T16:47:28.832Z,3.80
2018-06-03T16:49:57.407Z,4.10
2018-06-03T16:52:26.003Z,6.17
2018-06-03T16:54:54.639Z,4.03
2018-06-03T16:57:23.238Z,3.70
2018-06-03T16:59:54.834Z,3.30
2018-06-03T17:02:23.514Z,3.23
2018-06-03T17:04:52.213Z,5.63
2018-06-03T17:07:20.821Z,3.97
2018-06-03T17:09:49.557Z,3.37
2018-06-03T17:12:18.390Z,3.17
2018-06-03T17:14:47.056Z,3.67
2018-06-03T17:17:15.284Z,3.90
2018-06-03T17:19:43.906Z,4.03
2018-06-03T17:22:12.574Z,4.70
2018-06-03T17:24:41.159Z,4.07
2018-06-03T17:27:09.798Z,4.57
2018-06-03T17:29:38.442Z,3.63
2018-06-03T17:32:06.971Z,4.33
2018-06-03T17:34:35.663Z,3.90
2018-06-03T17:37:04.300Z,3.83
2018-06-03T17:39:32.835Z,3.57
2018-06-03T17:42:01.431Z,5.37
2018-06-03T17:44:30.060Z,4.43
2018-06-03T17:46:58.602Z,4.43
2018-06-03T17:49:26.899Z,4.33
2018-06-03T17:51:55.512Z,5.33
2018-06-03T17:54:24.614Z,5.20
2018-06-03T17:56:53.568Z,5.07
2018-06-03T17:59:22.212Z,4.43
2018-06-03T18:01:50.813Z,6.10
2018-06-03T18:04:19.378Z,4.70
2018-06-03T18:06:48.476Z,12.03
2018-06-03T18:09:17.133Z,5.30
2018-06-03T18:11:45.771Z,19.00
2018-06-03T18:14:14.028Z,7.80
2018-06-03T18:16:42.609Z,6.67
2018-06-03T18:19:11.213Z,5.37
2018-06-03T18:21:39.496Z,7.07
2018-06-03T18:24:07.786Z,5.00
2018-06-03T18:26:36.315Z,7.50
2018-06-03T18:29:06.683Z,6.63
2018-06-03T18:31:35.304Z,5.50
2018-06-03T18:34:03.926Z,7.37
2018-06-03T18:36:32.522Z,4.90
2018-06-03T18:39:01.158Z,5.30
2018-06-03T18:41:29.851Z,5.23
2018-06-03T18:43:58.416Z,4.77
2018-06-03T18:46:27.135Z,6.57
2018-06-03T18:48:55.703Z,5.20
2018-06-03T18:51:24.279Z,7.80
2018-06-03T18:53:52.957Z,6.37
2018-06-03T18:56:21.554Z,5.40
2018-06-03T18:58:50.264Z,5.30
2018-06-03T19:01:18.995Z,5.30
2018-06-03T19:03:47.571Z,7.60
2018-06-03T19:06:16.247Z,16.83
2018-06-03T19:08:44.943Z,8.47
2018-06-03T19:11:13.625Z,5.50
2018-06-03T19:13:42.207Z,6.03
2018-06-03T19:16:10.907Z,7.33
2018-06-03T19:18:39.640Z,5.63
2018-06-03T19:21:08.313Z,7.50
2018-06-03T19:23:37.023Z,4.90
2018-06-03T19:26:05.623Z,5.00
2018-06-03T19:28:34.213Z,5.07
2018-06-03T19:31:02.903Z,4.33
2018-06-03T19:33:31.521Z,6.20
2018-06-03T19:36:00.193Z,5.70
2018-06-03T19:38:28.816Z,11.40
2018-06-03T19:40:57.436Z,3.97
2018-06-03T19:43:26.028Z,6.63
2018-06-03T19:45:54.657Z,9.60
2018-06-03T19:48:23.363Z,7.13
2018-06-03T19:50:51.964Z,5.30
2018-06-03T19:53:20.513Z,9.90
2018-06-03T19:55:49.086Z,6.57
2018-06-03T19:58:17.910Z,4.40
2018-06-03T20:00:46.575Z,4.90
2018-06-03T20:03:15.227Z,6.10
2018-06-03T20:05:43.823Z,6.17
2018-06-03T20:08:12.515Z,5.97
2018-06-03T20:10:41.162Z,5.50
2018-06-03T20:13:09.837Z,5.53
2018-06-03T20:15:38.581Z,5.77
2018-06-03T20:18:07.275Z,5.50
2018-06-03T20:20:35.966Z,4.67
2018-06-03T20:23:04.562Z,7.33
2018-06-03T20:25:33.194Z,5.90
2018-06-03T20:28:01.858Z,6.73
2018-06-03T20:30:30.452Z,6.53
2018-06-03T20:32:59.040Z,5.73
2018-06-03T20:35:27.647Z,6.07
2018-06-03T20:37:56.203Z,6.47
2018-06-03T20:40:24.771Z,6.00
2018-06-03T20:42:53.382Z,9.97
2018-06-03T20:45:21.923Z,6.53
2018-06-03T20:47:50.553Z,6.10
2018-06-03T20:50:19.263Z,7.60
2018-06-03T20:52:47.899Z,6.13
2018-06-03T20:55:16.433Z,5.77
2018-06-03T20:57:45.186Z,8.27
2018-06-03T21:00:13.984Z,9.00
2018-06-03T21:02:42.620Z,5.73
2018-06-03T21:05:11.358Z,8.13
2018-06-03T21:07:39.926Z,5.67
2018-06-03T21:10:08.580Z,5.90
2018-06-03T21:12:37.211Z,6.57
2018-06-03T21:15:05.814Z,5.83
2018-06-03T21:17:34.401Z,5.77
2018-06-03T21:20:03.119Z,6.03
2018-06-03T21:22:31.778Z,5.47
2018-06-03T21:25:00.377Z,5.67
2018-06-03T21:27:29.015Z,6.67
2018-06-03T21:29:57.931Z,7.37
2018-06-03T21:32:26.709Z,5.40
2018-06-03T21:34:55.412Z,5.40
2018-06-03T21:37:24.099Z,6.13
2018-06-03T21:39:52.810Z,7.07
2018-06-03T21:42:21.366Z,6.03
2018-06-03T21:44:50.190Z,8.40
2018-06-03T21:47:18.950Z,7.27
2018-06-03T21:49:47.762Z,5.67
2018-06-03T21:52:16.421Z,5.90
2018-06-03T21:54:45.116Z,7.50
2018-06-03T21:57:13.757Z,6.87
2018-06-03T21:59:42.378Z,6.83
2018-06-03T22:02:10.986Z,5.40
2018-06-03T22:04:39.564Z,6.43
2018-06-03T22:07:08.313Z,6.90
2018-06-03T22:09:37.008Z,6.13
2018-06-03T22:12:05.732Z,7.10
2018-06-03T22:14:34.378Z,6.13
2018-06-03T22:17:03.155Z,4.93
2018-06-03T22:19:31.688Z,6.97
2018-06-03T22:22:00.353Z,7.20
2018-06-03T22:24:28.930Z,7.87
2018-06-03T22:26:57.691Z,6.23
2018-06-03T22:29:26.282Z,5.77
2018-06-03T22:31:55.029Z,9.17
2018-06-03T22:34:23.670Z,5.97
2018-06-03T22:36:52.371Z,10.93
2018-06-03T22:39:20.981Z,5.67
2018-06-03T22:41:49.547Z,6.63
2018-06-03T22:44:18.231Z,8.83
2018-06-03T22:46:46.852Z,6.60
2018-06-03T22:49:15.346Z,5.80
2018-06-03T22:51:43.941Z,6.80
2018-06-03T22:54:12.522Z,5.40
2018-06-03T22:57:54.904Z,6.30
2018-06-03T23:00:31.946Z,5.40
2018-06-03T23:03:05.843Z,6.83
2018-06-03T23:05:34.640Z,5.37
2018-06-03T23:08:03.313Z,9.40
2018-06-03T23:10:31.974Z,6.70
2018-06-03T23:13:00.755Z,8.63
2018-06-03T23:15:29.376Z,5.70
2018-06-03T23:17:58.174Z,7.40
2018-06-03T23:20:26.744Z,6.37
2018-06-03T23:22:55.347Z,6.93
2018-06-03T23:25:23.976Z,6.53
2018-06-03T23:27:52.578Z,8.27
2018-06-03T23:30:21.126Z,6.67
2018-06-03T23:32:49.671Z,6.80
2018-06-03T23:35:18.326Z,5.93
2018-06-03T23:37:46.998Z,6.27
2018-06-03T23:40:15.707Z,5.93
2018-06-03T23:42:44.363Z,6.57
2018-06-03T23:45:12.926Z,7.97
2018-06-03T23:47:41.199Z,8.53
2018-06-03T23:50:09.794Z,8.27
2018-06-03T23:52:38.396Z,6.57
2018-06-03T23:55:07.027Z,7.80
2018-06-03T23:57:35.649Z,7.80
